ETIH

Hohenfels Army Air Field Airport

Germany
METAR ETIH 191456Z AUTO 10006KT 9999 CLR 00/M07 A2995 RMK AO2 SLP177 T00041067 57017 $
Observed Flight Rules
Jan-19 @ 14:56 UTC (2 hours ago) Visual Flight Rules
Wind Visibility Clouds
100° at 6 knots 10,000+ meters
  • Clear skies
Temperatures Readings
Current 0°C / 32°F
Dewpoint -7°C / 19°F
Humidity 60%
Altimeter 29.95" Hg
Pressure 1017.7 hPa
Elevation 442
METAR ETIH 191456Z AUTO 10006KT 9999 CLR 00/M07 A2995 RMK AO2 SLP177 T00041067 57017 $
Observed Flight Rules
Jan-19 @ 14:56 UTC
(2 hours ago)
VFR
Wind Visibility
100° at 6 knots 10,000+ meters
Clouds
  • Clear skies
Temperature Dewpoint
0°C / 32°F -7°C / 19°F
Humidity Altimeter Pressure
60% 29.95" Hg 1017.7 hPa